sensor_id;sensor_type;location;lat;lon;timestamp;P1;durP1;ratioP1;P2;durP2;ratioP2
54831;SDS011;40730;53.068;6.572;2022-09-19T00:01:29;11.95;;;0.93;;
54831;SDS011;40730;53.068;6.572;2022-09-19T00:04:00;12.07;;;0.50;;
54831;SDS011;40730;53.068;6.572;2022-09-19T00:06:29;9.35;;;0.40;;
54831;SDS011;40730;53.068;6.572;2022-09-19T00:08:56;6.90;;;0.55;;
54831;SDS011;40730;53.068;6.572;2022-09-19T00:11:22;12.02;;;0.60;;
54831;SDS011;40730;53.068;6.572;2022-09-19T00:13:50;12.90;;;1.17;;
54831;SDS011;40730;53.068;6.572;2022-09-19T00:18:44;6.93;;;0.80;;
54831;SDS011;40730;53.068;6.572;2022-09-19T00:21:10;15.48;;;0.75;;
54831;SDS011;40730;53.068;6.572;2022-09-19T00:23:35;15.48;;;0.77;;
54831;SDS011;40730;53.068;6.572;2022-09-19T00:26:19;19.70;;;0.85;;
54831;SDS011;40730;53.068;6.572;2022-09-19T00:28:46;17.38;;;0.80;;
54831;SDS011;40730;53.068;6.572;2022-09-19T00:31:16;13.30;;;0.93;;
54831;SDS011;40730;53.068;6.572;2022-09-19T00:33:44;15.35;;;1.00;;
54831;SDS011;40730;53.068;6.572;2022-09-19T00:36:13;21.20;;;0.73;;
54831;SDS011;40730;53.068;6.572;2022-09-19T00:38:40;19.30;;;0.93;;
54831;SDS011;40730;53.068;6.572;2022-09-19T00:41:06;16.08;;;0.70;;
54831;SDS011;40730;53.068;6.572;2022-09-19T00:43:52;21.92;;;1.50;;
54831;SDS011;40730;53.068;6.572;2022-09-19T00:46:18;16.73;;;1.00;;
54831;SDS011;40730;53.068;6.572;2022-09-19T00:48:46;19.27;;;1.00;;
54831;SDS011;40730;53.068;6.572;2022-09-19T00:51:38;15.30;;;1.52;;
54831;SDS011;40730;53.068;6.572;2022-09-19T00:54:12;25.55;;;1.40;;
54831;SDS011;40730;53.068;6.572;2022-09-19T00:56:41;21.15;;;1.80;;
54831;SDS011;40730;53.068;6.572;2022-09-19T00:59:13;11.35;;;1.00;;
54831;SDS011;40730;53.068;6.572;2022-09-19T01:01:39;16.05;;;1.10;;
54831;SDS011;40730;53.068;6.572;2022-09-19T01:04:19;15.98;;;0.93;;
54831;SDS011;40730;53.068;6.572;2022-09-19T01:06:52;14.48;;;1.00;;
54831;SDS011;40730;53.068;6.572;2022-09-19T01:17:31;19.38;;;1.45;;
54831;SDS011;40730;53.068;6.572;2022-09-19T01:20:26;19.27;;;1.30;;
54831;SDS011;40730;53.068;6.572;2022-09-19T01:28:23;15.93;;;0.88;;
54831;SDS011;40730;53.068;6.572;2022-09-19T01:31:01;18.20;;;0.88;;
54831;SDS011;40730;53.068;6.572;2022-09-19T01:34:29;18.70;;;1.13;;
54831;SDS011;40730;53.068;6.572;2022-09-19T01:36:34;15.80;;;1.23;;
54831;SDS011;40730;53.068;6.572;2022-09-19T01:39:23;20.50;;;1.27;;
54831;SDS011;40730;53.068;6.572;2022-09-19T01:41:51;15.55;;;0.80;;
54831;SDS011;40730;53.068;6.572;2022-09-19T01:44:22;16.83;;;1.80;;
54831;SDS011;40730;53.068;6.572;2022-09-19T01:58:33;15.85;;;0.90;;
54831;SDS011;40730;53.068;6.572;2022-09-19T02:01:10;9.65;;;0.35;;
54831;SDS011;40730;53.068;6.572;2022-09-19T02:12:07;21.38;;;0.90;;
54831;SDS011;40730;53.068;6.572;2022-09-19T02:14:35;13.70;;;0.85;;
54831;SDS011;40730;53.068;6.572;2022-09-19T02:17:06;10.25;;;0.65;;
54831;SDS011;40730;53.068;6.572;2022-09-19T02:19:45;10.90;;;0.40;;
54831;SDS011;40730;53.068;6.572;2022-09-19T02:22:32;13.23;;;0.63;;
54831;SDS011;40730;53.068;6.572;2022-09-19T02:25:03;13.48;;;0.90;;
54831;SDS011;40730;53.068;6.572;2022-09-19T02:27:42;14.85;;;1.25;;
54831;SDS011;40730;53.068;6.572;2022-09-19T02:30:15;21.15;;;0.77;;
54831;SDS011;40730;53.068;6.572;2022-09-19T02:32:44;22.30;;;1.00;;
54831;SDS011;40730;53.068;6.572;2022-09-19T02:35:18;15.75;;;1.10;;
54831;SDS011;40730;53.068;6.572;2022-09-19T02:37:52;26.52;;;1.45;;
54831;SDS011;40730;53.068;6.572;2022-09-19T02:40:32;14.80;;;0.75;;
54831;SDS011;40730;53.068;6.572;2022-09-19T02:43:18;24.95;;;1.38;;
54831;SDS011;40730;53.068;6.572;2022-09-19T02:45:50;21.45;;;1.00;;
54831;SDS011;40730;53.068;6.572;2022-09-19T02:48:21;21.63;;;1.27;;
54831;SDS011;40730;53.068;6.572;2022-09-19T02:53:29;16.13;;;1.15;;
54831;SDS011;40730;53.068;6.572;2022-09-19T02:56:00;15.23;;;0.75;;
54831;SDS011;40730;53.068;6.572;2022-09-19T02:58:29;21.42;;;1.17;;
54831;SDS011;40730;53.068;6.572;2022-09-19T03:01:00;19.33;;;1.27;;
54831;SDS011;40730;53.068;6.572;2022-09-19T03:03:34;24.42;;;2.20;;
54831;SDS011;40730;53.068;6.572;2022-09-19T03:06:24;16.40;;;0.85;;
54831;SDS011;40730;53.068;6.572;2022-09-19T03:08:56;16.25;;;0.95;;
54831;SDS011;40730;53.068;6.572;2022-09-19T03:11:24;14.63;;;0.80;;
54831;SDS011;40730;53.068;6.572;2022-09-19T03:13:52;15.20;;;0.75;;
54831;SDS011;40730;53.068;6.572;2022-09-19T03:16:23;23.35;;;1.10;;
54831;SDS011;40730;53.068;6.572;2022-09-19T03:18:53;18.08;;;0.85;;
54831;SDS011;40730;53.068;6.572;2022-09-19T03:21:21;12.75;;;0.68;;
54831;SDS011;40730;53.068;6.572;2022-09-19T03:23:51;17.13;;;0.70;;
54831;SDS011;40730;53.068;6.572;2022-09-19T03:26:22;16.33;;;0.85;;
54831;SDS011;40730;53.068;6.572;2022-09-19T03:28:51;13.32;;;0.95;;
54831;SDS011;40730;53.068;6.572;2022-09-19T03:31:20;16.88;;;1.00;;
54831;SDS011;40730;53.068;6.572;2022-09-19T03:33:46;19.35;;;1.88;;
54831;SDS011;40730;53.068;6.572;2022-09-19T03:36:12;18.83;;;1.48;;
54831;SDS011;40730;53.068;6.572;2022-09-19T03:38:38;20.38;;;2.13;;
54831;SDS011;40730;53.068;6.572;2022-09-19T03:41:13;9.57;;;0.82;;
54831;SDS011;40730;53.068;6.572;2022-09-19T03:43:39;18.33;;;0.88;;
54831;SDS011;40730;53.068;6.572;2022-09-19T03:46:08;21.48;;;1.45;;
54831;SDS011;40730;53.068;6.572;2022-09-19T03:48:38;15.73;;;1.08;;
54831;SDS011;40730;53.068;6.572;2022-09-19T03:51:10;19.63;;;1.50;;
54831;SDS011;40730;53.068;6.572;2022-09-19T03:53:36;17.45;;;1.00;;
54831;SDS011;40730;53.068;6.572;2022-09-19T03:56:02;13.68;;;1.02;;
54831;SDS011;40730;53.068;6.572;2022-09-19T03:58:28;21.65;;;1.02;;
54831;SDS011;40730;53.068;6.572;2022-09-19T04:00:56;14.88;;;2.92;;
54831;SDS011;40730;53.068;6.572;2022-09-19T04:03:22;16.38;;;1.05;;
54831;SDS011;40730;53.068;6.572;2022-09-19T04:05:49;19.20;;;0.80;;
54831;SDS011;40730;53.068;6.572;2022-09-19T04:08:16;12.07;;;1.20;;
54831;SDS011;40730;53.068;6.572;2022-09-19T04:10:42;18.73;;;0.80;;
54831;SDS011;40730;53.068;6.572;2022-09-19T04:13:08;24.80;;;1.52;;
54831;SDS011;40730;53.068;6.572;2022-09-19T04:15:34;15.52;;;1.48;;
54831;SDS011;40730;53.068;6.572;2022-09-19T04:18:00;14.23;;;1.27;;
54831;SDS011;40730;53.068;6.572;2022-09-19T04:20:27;15.43;;;1.10;;
54831;SDS011;40730;53.068;6.572;2022-09-19T04:22:54;18.85;;;1.35;;
54831;SDS011;40730;53.068;6.572;2022-09-19T04:25:24;21.90;;;1.27;;
54831;SDS011;40730;53.068;6.572;2022-09-19T04:27:50;21.70;;;1.70;;
54831;SDS011;40730;53.068;6.572;2022-09-19T04:30:17;20.08;;;1.67;;
54831;SDS011;40730;53.068;6.572;2022-09-19T04:32:47;19.50;;;2.00;;
54831;SDS011;40730;53.068;6.572;2022-09-19T04:35:13;18.80;;;1.50;;
54831;SDS011;40730;53.068;6.572;2022-09-19T04:37:38;12.68;;;0.60;;
54831;SDS011;40730;53.068;6.572;2022-09-19T04:40:04;21.25;;;1.15;;
54831;SDS011;40730;53.068;6.572;2022-09-19T04:42:30;15.32;;;1.08;;
54831;SDS011;40730;53.068;6.572;2022-09-19T04:44:57;12.20;;;0.98;;
54831;SDS011;40730;53.068;6.572;2022-09-19T04:47:22;18.52;;;1.25;;
54831;SDS011;40730;53.068;6.572;2022-09-19T04:49:48;13.73;;;0.65;;
54831;SDS011;40730;53.068;6.572;2022-09-19T04:52:14;19.70;;;1.08;;
54831;SDS011;40730;53.068;6.572;2022-09-19T04:54:40;17.02;;;0.90;;
54831;SDS011;40730;53.068;6.572;2022-09-19T04:57:07;23.38;;;2.00;;
54831;SDS011;40730;53.068;6.572;2022-09-19T04:59:33;16.83;;;1.23;;
54831;SDS011;40730;53.068;6.572;2022-09-19T05:02:00;25.50;;;2.92;;
54831;SDS011;40730;53.068;6.572;2022-09-19T05:04:27;19.52;;;2.22;;
54831;SDS011;40730;53.068;6.572;2022-09-19T05:06:52;21.50;;;1.65;;
54831;SDS011;40730;53.068;6.572;2022-09-19T05:09:18;30.35;;;2.35;;
54831;SDS011;40730;53.068;6.572;2022-09-19T05:11:44;20.15;;;2.65;;
54831;SDS011;40730;53.068;6.572;2022-09-19T05:14:11;23.48;;;3.05;;
54831;SDS011;40730;53.068;6.572;2022-09-19T05:16:38;21.20;;;1.20;;
54831;SDS011;40730;53.068;6.572;2022-09-19T05:19:05;15.90;;;0.95;;
54831;SDS011;40730;53.068;6.572;2022-09-19T05:21:30;21.70;;;1.40;;
54831;SDS011;40730;53.068;6.572;2022-09-19T05:23:58;18.33;;;1.45;;
54831;SDS011;40730;53.068;6.572;2022-09-19T05:26:23;17.13;;;1.23;;
54831;SDS011;40730;53.068;6.572;2022-09-19T05:28:49;21.40;;;1.55;;
54831;SDS011;40730;53.068;6.572;2022-09-19T05:31:15;21.38;;;1.25;;
54831;SDS011;40730;53.068;6.572;2022-09-19T05:33:43;22.02;;;1.25;;
54831;SDS011;40730;53.068;6.572;2022-09-19T05:36:09;20.75;;;1.85;;
54831;SDS011;40730;53.068;6.572;2022-09-19T05:38:34;18.60;;;1.00;;
54831;SDS011;40730;53.068;6.572;2022-09-19T05:41:01;18.65;;;1.67;;
54831;SDS011;40730;53.068;6.572;2022-09-19T05:43:28;19.30;;;1.52;;
54831;SDS011;40730;53.068;6.572;2022-09-19T05:45:54;14.40;;;1.55;;
54831;SDS011;40730;53.068;6.572;2022-09-19T05:48:21;19.48;;;1.30;;
54831;SDS011;40730;53.068;6.572;2022-09-19T05:50:49;22.42;;;1.63;;
54831;SDS011;40730;53.068;6.572;2022-09-19T05:53:16;17.52;;;1.13;;
54831;SDS011;40730;53.068;6.572;2022-09-19T05:56:01;14.32;;;0.90;;
54831;SDS011;40730;53.068;6.572;2022-09-19T05:58:27;11.10;;;0.60;;
54831;SDS011;40730;53.068;6.572;2022-09-19T06:00:53;15.07;;;1.00;;
54831;SDS011;40730;53.068;6.572;2022-09-19T06:03:19;16.13;;;0.73;;
54831;SDS011;40730;53.068;6.572;2022-09-19T06:05:48;14.68;;;1.05;;
54831;SDS011;40730;53.068;6.572;2022-09-19T06:08:16;14.27;;;1.40;;
54831;SDS011;40730;53.068;6.572;2022-09-19T06:10:46;18.13;;;1.35;;
54831;SDS011;40730;53.068;6.572;2022-09-19T06:13:14;16.30;;;0.85;;
54831;SDS011;40730;53.068;6.572;2022-09-19T06:15:44;15.85;;;0.80;;
54831;SDS011;40730;53.068;6.572;2022-09-19T06:18:10;15.77;;;0.93;;
54831;SDS011;40730;53.068;6.572;2022-09-19T06:20:37;11.57;;;0.80;;
54831;SDS011;40730;53.068;6.572;2022-09-19T06:23:07;15.02;;;0.90;;
54831;SDS011;40730;53.068;6.572;2022-09-19T06:25:35;23.65;;;1.63;;
54831;SDS011;40730;53.068;6.572;2022-09-19T06:28:05;18.58;;;0.88;;
54831;SDS011;40730;53.068;6.572;2022-09-19T06:30:35;21.85;;;1.02;;
54831;SDS011;40730;53.068;6.572;2022-09-19T06:33:01;16.05;;;0.88;;
54831;SDS011;40730;53.068;6.572;2022-09-19T06:35:30;20.17;;;1.98;;
54831;SDS011;40730;53.068;6.572;2022-09-19T06:37:57;15.25;;;0.70;;
54831;SDS011;40730;53.068;6.572;2022-09-19T06:40:24;19.63;;;1.98;;
54831;SDS011;40730;53.068;6.572;2022-09-19T06:42:55;17.02;;;0.93;;
54831;SDS011;40730;53.068;6.572;2022-09-19T06:45:28;24.92;;;1.35;;
54831;SDS011;40730;53.068;6.572;2022-09-19T06:47:57;18.35;;;0.85;;
54831;SDS011;40730;53.068;6.572;2022-09-19T06:50:24;13.88;;;0.63;;
54831;SDS011;40730;53.068;6.572;2022-09-19T06:52:51;15.30;;;0.57;;
54831;SDS011;40730;53.068;6.572;2022-09-19T06:55:16;8.70;;;0.70;;
54831;SDS011;40730;53.068;6.572;2022-09-19T06:57:42;13.63;;;0.80;;
54831;SDS011;40730;53.068;6.572;2022-09-19T07:00:08;10.75;;;0.70;;
54831;SDS011;40730;53.068;6.572;2022-09-19T07:02:34;10.02;;;0.80;;
54831;SDS011;40730;53.068;6.572;2022-09-19T07:04:59;10.40;;;0.80;;
54831;SDS011;40730;53.068;6.572;2022-09-19T07:07:26;11.77;;;0.43;;
54831;SDS011;40730;53.068;6.572;2022-09-19T07:09:51;7.57;;;0.30;;
54831;SDS011;40730;53.068;6.572;2022-09-19T07:12:17;13.40;;;1.02;;
54831;SDS011;40730;53.068;6.572;2022-09-19T07:14:42;9.88;;;0.68;;
54831;SDS011;40730;53.068;6.572;2022-09-19T07:17:08;7.57;;;0.68;;
54831;SDS011;40730;53.068;6.572;2022-09-19T07:19:33;12.95;;;0.90;;
54831;SDS011;40730;53.068;6.572;2022-09-19T07:21:59;7.18;;;0.40;;
54831;SDS011;40730;53.068;6.572;2022-09-19T07:24:25;12.02;;;0.55;;
54831;SDS011;40730;53.068;6.572;2022-09-19T07:26:51;11.52;;;0.60;;
54831;SDS011;40730;53.068;6.572;2022-09-19T07:29:17;5.95;;;0.60;;
54831;SDS011;40730;53.068;6.572;2022-09-19T07:31:44;11.35;;;0.50;;
54831;SDS011;40730;53.068;6.572;2022-09-19T07:34:11;10.27;;;0.60;;
54831;SDS011;40730;53.068;6.572;2022-09-19T07:36:36;12.35;;;0.50;;
54831;SDS011;40730;53.068;6.572;2022-09-19T07:39:02;8.00;;;0.55;;
54831;SDS011;40730;53.068;6.572;2022-09-19T07:41:28;11.18;;;0.70;;
54831;SDS011;40730;53.068;6.572;2022-09-19T07:43:53;10.45;;;0.57;;
54831;SDS011;40730;53.068;6.572;2022-09-19T07:46:19;14.13;;;0.60;;
54831;SDS011;40730;53.068;6.572;2022-09-19T07:48:47;15.27;;;0.57;;
54831;SDS011;40730;53.068;6.572;2022-09-19T07:51:13;17.95;;;1.00;;
54831;SDS011;40730;53.068;6.572;2022-09-19T07:53:39;11.30;;;0.70;;
54831;SDS011;40730;53.068;6.572;2022-09-19T07:56:04;9.70;;;0.55;;
54831;SDS011;40730;53.068;6.572;2022-09-19T07:58:30;11.70;;;0.85;;
54831;SDS011;40730;53.068;6.572;2022-09-19T08:00:59;14.20;;;0.80;;
54831;SDS011;40730;53.068;6.572;2022-09-19T08:03:26;12.35;;;1.23;;
54831;SDS011;40730;53.068;6.572;2022-09-19T08:05:51;8.93;;;0.43;;
54831;SDS011;40730;53.068;6.572;2022-09-19T08:08:18;11.95;;;0.50;;
54831;SDS011;40730;53.068;6.572;2022-09-19T08:10:45;14.48;;;0.88;;
54831;SDS011;40730;53.068;6.572;2022-09-19T08:13:11;11.10;;;0.75;;
54831;SDS011;40730;53.068;6.572;2022-09-19T08:15:38;14.02;;;1.13;;
54831;SDS011;40730;53.068;6.572;2022-09-19T08:20:41;8.90;;;0.63;;
54831;SDS011;40730;53.068;6.572;2022-09-19T08:23:08;14.98;;;1.67;;
54831;SDS011;40730;53.068;6.572;2022-09-19T08:25:36;15.63;;;1.63;;
54831;SDS011;40730;53.068;6.572;2022-09-19T08:28:05;14.65;;;1.75;;
54831;SDS011;40730;53.068;6.572;2022-09-19T08:30:31;16.20;;;1.58;;
54831;SDS011;40730;53.068;6.572;2022-09-19T08:33:01;11.07;;;0.80;;
54831;SDS011;40730;53.068;6.572;2022-09-19T08:35:28;9.90;;;0.70;;
54831;SDS011;40730;53.068;6.572;2022-09-19T08:37:56;13.13;;;0.77;;
54831;SDS011;40730;53.068;6.572;2022-09-19T08:43:04;8.75;;;0.52;;
54831;SDS011;40730;53.068;6.572;2022-09-19T08:56:53;8.50;;;0.80;;
54831;SDS011;40730;53.068;6.572;2022-09-19T08:59:20;11.27;;;0.68;;
54831;SDS011;40730;53.068;6.572;2022-09-19T09:01:48;9.38;;;1.17;;
54831;SDS011;40730;53.068;6.572;2022-09-19T09:04:28;9.38;;;0.90;;
54831;SDS011;40730;53.068;6.572;2022-09-19T09:07:16;13.07;;;1.30;;
54831;SDS011;40730;53.068;6.572;2022-09-19T09:20:20;8.65;;;0.70;;
54831;SDS011;40730;53.068;6.572;2022-09-19T09:23:06;9.45;;;0.80;;
54831;SDS011;40730;53.068;6.572;2022-09-19T09:25:42;6.63;;;0.68;;
54831;SDS011;40730;53.068;6.572;2022-09-19T09:30:51;13.57;;;0.82;;
54831;SDS011;40730;53.068;6.572;2022-09-19T09:33:22;14.32;;;1.33;;
54831;SDS011;40730;53.068;6.572;2022-09-19T09:35:55;16.65;;;1.00;;
54831;SDS011;40730;53.068;6.572;2022-09-19T09:41:15;12.55;;;1.05;;
54831;SDS011;40730;53.068;6.572;2022-09-19T09:49:15;8.43;;;0.60;;
54831;SDS011;40730;53.068;6.572;2022-09-19T09:54:26;14.40;;;0.65;;
54831;SDS011;40730;53.068;6.572;2022-09-19T10:00:20;12.38;;;0.70;;
54831;SDS011;40730;53.068;6.572;2022-09-19T10:03:22;7.90;;;0.32;;
54831;SDS011;40730;53.068;6.572;2022-09-19T10:06:34;5.68;;;0.30;;
54831;SDS011;40730;53.068;6.572;2022-09-19T10:09:28;8.43;;;0.63;;
54831;SDS011;40730;53.068;6.572;2022-09-19T10:11:59;3.65;;;0.30;;
54831;SDS011;40730;53.068;6.572;2022-09-19T10:14:32;6.95;;;0.40;;
54831;SDS011;40730;53.068;6.572;2022-09-19T10:17:01;5.03;;;0.40;;
54831;SDS011;40730;53.068;6.572;2022-09-19T10:19:39;7.25;;;0.95;;
54831;SDS011;40730;53.068;6.572;2022-09-19T10:22:11;5.10;;;0.10;;
54831;SDS011;40730;53.068;6.572;2022-09-19T10:24:45;10.15;;;0.30;;
54831;SDS011;40730;53.068;6.572;2022-09-19T10:27:26;7.07;;;0.80;;
54831;SDS011;40730;53.068;6.572;2022-09-19T10:32:51;9.80;;;0.50;;
54831;SDS011;40730;53.068;6.572;2022-09-19T10:35:34;10.68;;;0.73;;
54831;SDS011;40730;53.068;6.572;2022-09-19T10:38:08;13.10;;;0.50;;
54831;SDS011;40730;53.068;6.572;2022-09-19T10:40:39;9.98;;;0.82;;
54831;SDS011;40730;53.068;6.572;2022-09-19T10:43:28;11.25;;;0.50;;
54831;SDS011;40730;53.068;6.572;2022-09-19T10:46:02;16.52;;;1.30;;
54831;SDS011;40730;53.068;6.572;2022-09-19T10:48:37;17.25;;;1.88;;
54831;SDS011;40730;53.068;6.572;2022-09-19T10:51:05;8.35;;;1.08;;
54831;SDS011;40730;53.068;6.572;2022-09-19T10:53:33;13.38;;;1.13;;
54831;SDS011;40730;53.068;6.572;2022-09-19T10:56:04;11.90;;;0.82;;
54831;SDS011;40730;53.068;6.572;2022-09-19T11:01:23;15.50;;;1.58;;
54831;SDS011;40730;53.068;6.572;2022-09-19T11:06:30;11.82;;;0.95;;
54831;SDS011;40730;53.068;6.572;2022-09-19T11:08:57;10.45;;;1.00;;
54831;SDS011;40730;53.068;6.572;2022-09-19T11:11:41;9.82;;;0.57;;
54831;SDS011;40730;53.068;6.572;2022-09-19T11:14:21;8.93;;;0.65;;
54831;SDS011;40730;53.068;6.572;2022-09-19T11:37:03;12.57;;;1.20;;
54831;SDS011;40730;53.068;6.572;2022-09-19T11:40:22;15.63;;;1.10;;
54831;SDS011;40730;53.068;6.572;2022-09-19T11:42:44;11.25;;;0.80;;
54831;SDS011;40730;53.068;6.572;2022-09-19T11:45:20;14.20;;;0.90;;
54831;SDS011;40730;53.068;6.572;2022-09-19T11:47:54;8.68;;;0.70;;
54831;SDS011;40730;53.068;6.572;2022-09-19T11:53:25;11.52;;;0.80;;
54831;SDS011;40730;53.068;6.572;2022-09-19T12:07:15;6.38;;;0.40;;
54831;SDS011;40730;53.068;6.572;2022-09-19T12:09:38;10.73;;;0.60;;
54831;SDS011;40730;53.068;6.572;2022-09-19T12:14:52;8.27;;;0.60;;
54831;SDS011;40730;53.068;6.572;2022-09-19T12:17:24;9.18;;;0.70;;
54831;SDS011;40730;53.068;6.572;2022-09-19T12:20:03;7.97;;;0.60;;
54831;SDS011;40730;53.068;6.572;2022-09-19T12:22:52;11.23;;;0.85;;
54831;SDS011;40730;53.068;6.572;2022-09-19T12:25:23;11.70;;;1.15;;
54831;SDS011;40730;53.068;6.572;2022-09-19T12:27:57;9.27;;;1.00;;
54831;SDS011;40730;53.068;6.572;2022-09-19T12:30:28;10.43;;;0.93;;
54831;SDS011;40730;53.068;6.572;2022-09-19T12:35:33;10.80;;;0.73;;
54831;SDS011;40730;53.068;6.572;2022-09-19T12:38:24;6.72;;;0.80;;
54831;SDS011;40730;53.068;6.572;2022-09-19T12:48:58;7.47;;;0.63;;
54831;SDS011;40730;53.068;6.572;2022-09-19T12:51:42;10.77;;;0.93;;
54831;SDS011;40730;53.068;6.572;2022-09-19T12:54:18;11.88;;;1.08;;
54831;SDS011;40730;53.068;6.572;2022-09-19T12:57:08;10.68;;;0.60;;
54831;SDS011;40730;53.068;6.572;2022-09-19T13:00:02;8.20;;;0.43;;
54831;SDS011;40730;53.068;6.572;2022-09-19T13:05:01;9.13;;;0.73;;
54831;SDS011;40730;53.068;6.572;2022-09-19T13:07:50;6.43;;;0.80;;
54831;SDS011;40730;53.068;6.572;2022-09-19T13:13:16;7.60;;;0.40;;
54831;SDS011;40730;53.068;6.572;2022-09-19T13:15:46;8.70;;;0.95;;
54831;SDS011;40730;53.068;6.572;2022-09-19T13:18:17;12.25;;;0.90;;
54831;SDS011;40730;53.068;6.572;2022-09-19T13:21:02;11.38;;;1.45;;
54831;SDS011;40730;53.068;6.572;2022-09-19T13:23:51;14.35;;;0.82;;
54831;SDS011;40730;53.068;6.572;2022-09-19T13:26:22;10.13;;;1.45;;
54831;SDS011;40730;53.068;6.572;2022-09-19T13:28:58;9.88;;;1.70;;
54831;SDS011;40730;53.068;6.572;2022-09-19T13:31:25;9.00;;;0.73;;
54831;SDS011;40730;53.068;6.572;2022-09-19T13:33:57;7.65;;;0.70;;
54831;SDS011;40730;53.068;6.572;2022-09-19T13:38:49;7.72;;;0.50;;
54831;SDS011;40730;53.068;6.572;2022-09-19T13:41:35;6.97;;;0.80;;
54831;SDS011;40730;53.068;6.572;2022-09-19T13:44:35;9.40;;;0.73;;
54831;SDS011;40730;53.068;6.572;2022-09-19T13:47:09;6.68;;;0.45;;
54831;SDS011;40730;53.068;6.572;2022-09-19T13:52:30;5.88;;;0.60;;
54831;SDS011;40730;53.068;6.572;2022-09-19T13:57:38;10.68;;;0.50;;
54831;SDS011;40730;53.068;6.572;2022-09-19T14:11:44;4.90;;;0.40;;
54831;SDS011;40730;53.068;6.572;2022-09-19T14:17:36;12.13;;;1.10;;
54831;SDS011;40730;53.068;6.572;2022-09-19T14:19:56;16.08;;;1.05;;
54831;SDS011;40730;53.068;6.572;2022-09-19T14:25:23;13.82;;;0.65;;
54831;SDS011;40730;53.068;6.572;2022-09-19T14:33:32;16.08;;;1.05;;
54831;SDS011;40730;53.068;6.572;2022-09-19T14:47:20;6.40;;;0.40;;
54831;SDS011;40730;53.068;6.572;2022-09-19T14:50:12;6.38;;;0.52;;
54831;SDS011;40730;53.068;6.572;2022-09-19T14:53:02;6.35;;;0.75;;
54831;SDS011;40730;53.068;6.572;2022-09-19T14:55:51;7.22;;;0.30;;
54831;SDS011;40730;53.068;6.572;2022-09-19T14:58:23;9.13;;;0.50;;
54831;SDS011;40730;53.068;6.572;2022-09-19T15:00:55;6.80;;;0.40;;
54831;SDS011;40730;53.068;6.572;2022-09-19T15:03:45;10.57;;;1.58;;
54831;SDS011;40730;53.068;6.572;2022-09-19T15:06:16;6.15;;;0.40;;
54831;SDS011;40730;53.068;6.572;2022-09-19T15:08:47;7.88;;;0.35;;
54831;SDS011;40730;53.068;6.572;2022-09-19T15:11:13;6.85;;;0.60;;
54831;SDS011;40730;53.068;6.572;2022-09-19T15:13:47;5.00;;;0.20;;
54831;SDS011;40730;53.068;6.572;2022-09-19T15:16:15;5.35;;;0.38;;
54831;SDS011;40730;53.068;6.572;2022-09-19T15:18:45;5.57;;;0.65;;
54831;SDS011;40730;53.068;6.572;2022-09-19T15:21:25;6.43;;;0.30;;
54831;SDS011;40730;53.068;6.572;2022-09-19T15:23:55;5.55;;;0.40;;
54831;SDS011;40730;53.068;6.572;2022-09-19T15:26:23;6.60;;;0.47;;
54831;SDS011;40730;53.068;6.572;2022-09-19T15:28:56;8.73;;;0.75;;
54831;SDS011;40730;53.068;6.572;2022-09-19T15:31:31;10.13;;;1.02;;
54831;SDS011;40730;53.068;6.572;2022-09-19T15:34:11;8.60;;;0.55;;
54831;SDS011;40730;53.068;6.572;2022-09-19T15:36:41;8.68;;;0.38;;
54831;SDS011;40730;53.068;6.572;2022-09-19T15:39:10;5.22;;;0.50;;
54831;SDS011;40730;53.068;6.572;2022-09-19T15:41:36;8.85;;;0.28;;
54831;SDS011;40730;53.068;6.572;2022-09-19T15:44:03;7.05;;;0.40;;
54831;SDS011;40730;53.068;6.572;2022-09-19T15:46:42;5.15;;;0.30;;
54831;SDS011;40730;53.068;6.572;2022-09-19T15:49:18;3.67;;;0.20;;
54831;SDS011;40730;53.068;6.572;2022-09-19T15:51:59;5.35;;;0.60;;
54831;SDS011;40730;53.068;6.572;2022-09-19T15:54:28;7.63;;;0.30;;
54831;SDS011;40730;53.068;6.572;2022-09-19T15:56:59;4.90;;;0.30;;
54831;SDS011;40730;53.068;6.572;2022-09-19T15:59:36;5.18;;;0.20;;
54831;SDS011;40730;53.068;6.572;2022-09-19T16:02:11;2.88;;;0.77;;
54831;SDS011;40730;53.068;6.572;2022-09-19T16:04:44;5.75;;;0.30;;
54831;SDS011;40730;53.068;6.572;2022-09-19T16:07:24;4.68;;;0.30;;
54831;SDS011;40730;53.068;6.572;2022-09-19T16:10:20;7.18;;;0.30;;
54831;SDS011;40730;53.068;6.572;2022-09-19T16:12:51;6.78;;;0.30;;
54831;SDS011;40730;53.068;6.572;2022-09-19T16:15:21;7.90;;;0.20;;
54831;SDS011;40730;53.068;6.572;2022-09-19T16:23:00;4.03;;;0.10;;
54831;SDS011;40730;53.068;6.572;2022-09-19T16:25:28;9.20;;;0.30;;
54831;SDS011;40730;53.068;6.572;2022-09-19T16:28:20;3.42;;;0.20;;
54831;SDS011;40730;53.068;6.572;2022-09-19T16:30:48;4.90;;;0.17;;
54831;SDS011;40730;53.068;6.572;2022-09-19T16:33:14;5.15;;;0.43;;
54831;SDS011;40730;53.068;6.572;2022-09-19T16:35:40;4.32;;;0.20;;
54831;SDS011;40730;53.068;6.572;2022-09-19T16:38:06;8.23;;;0.50;;
54831;SDS011;40730;53.068;6.572;2022-09-19T16:40:32;9.02;;;0.40;;
54831;SDS011;40730;53.068;6.572;2022-09-19T16:42:57;3.90;;;0.30;;
54831;SDS011;40730;53.068;6.572;2022-09-19T16:45:36;7.53;;;0.30;;
54831;SDS011;40730;53.068;6.572;2022-09-19T16:48:04;9.43;;;0.63;;
54831;SDS011;40730;53.068;6.572;2022-09-19T16:50:29;4.55;;;0.30;;
54831;SDS011;40730;53.068;6.572;2022-09-19T16:53:02;4.68;;;0.55;;
54831;SDS011;40730;53.068;6.572;2022-09-19T16:55:37;5.60;;;0.35;;
54831;SDS011;40730;53.068;6.572;2022-09-19T16:58:07;9.20;;;0.43;;
54831;SDS011;40730;53.068;6.572;2022-09-19T17:00:38;10.18;;;0.55;;
54831;SDS011;40730;53.068;6.572;2022-09-19T17:03:04;5.45;;;0.30;;
54831;SDS011;40730;53.068;6.572;2022-09-19T17:05:33;4.75;;;0.30;;
54831;SDS011;40730;53.068;6.572;2022-09-19T17:08:01;5.95;;;0.40;;
54831;SDS011;40730;53.068;6.572;2022-09-19T17:10:27;7.32;;;0.60;;
54831;SDS011;40730;53.068;6.572;2022-09-19T17:12:54;8.52;;;0.52;;
54831;SDS011;40730;53.068;6.572;2022-09-19T17:16:21;6.13;;;0.43;;
54831;SDS011;40730;53.068;6.572;2022-09-19T17:18:22;6.10;;;0.30;;
54831;SDS011;40730;53.068;6.572;2022-09-19T17:20:49;6.55;;;0.20;;
54831;SDS011;40730;53.068;6.572;2022-09-19T17:23:17;7.45;;;0.57;;
54831;SDS011;40730;53.068;6.572;2022-09-19T17:28:14;8.30;;;1.48;;
54831;SDS011;40730;53.068;6.572;2022-09-19T17:30:42;5.88;;;0.30;;
54831;SDS011;40730;53.068;6.572;2022-09-19T17:33:15;6.47;;;0.30;;
54831;SDS011;40730;53.068;6.572;2022-09-19T17:35:42;7.40;;;0.40;;
54831;SDS011;40730;53.068;6.572;2022-09-19T17:38:07;7.55;;;0.30;;
54831;SDS011;40730;53.068;6.572;2022-09-19T17:40:39;7.15;;;0.40;;
54831;SDS011;40730;53.068;6.572;2022-09-19T17:43:08;8.10;;;0.20;;
54831;SDS011;40730;53.068;6.572;2022-09-19T17:45:38;8.02;;;0.40;;
54831;SDS011;40730;53.068;6.572;2022-09-19T17:48:04;8.70;;;0.40;;
54831;SDS011;40730;53.068;6.572;2022-09-19T17:50:30;5.90;;;0.82;;
54831;SDS011;40730;53.068;6.572;2022-09-19T17:52:55;6.50;;;0.35;;
54831;SDS011;40730;53.068;6.572;2022-09-19T17:55:22;8.48;;;0.30;;
54831;SDS011;40730;53.068;6.572;2022-09-19T17:57:48;11.27;;;0.22;;
54831;SDS011;40730;53.068;6.572;2022-09-19T18:00:14;7.40;;;0.38;;
54831;SDS011;40730;53.068;6.572;2022-09-19T18:02:40;6.22;;;0.55;;
54831;SDS011;40730;53.068;6.572;2022-09-19T18:05:26;5.43;;;0.25;;
54831;SDS011;40730;53.068;6.572;2022-09-19T18:07:52;7.72;;;0.95;;
54831;SDS011;40730;53.068;6.572;2022-09-19T18:10:21;10.38;;;0.32;;
54831;SDS011;40730;53.068;6.572;2022-09-19T18:12:49;7.03;;;0.40;;
54831;SDS011;40730;53.068;6.572;2022-09-19T18:15:16;7.57;;;0.25;;
54831;SDS011;40730;53.068;6.572;2022-09-19T18:17:41;8.02;;;0.95;;
54831;SDS011;40730;53.068;6.572;2022-09-19T18:20:07;5.22;;;0.28;;